Wetterdaten: Woche 05.01.04 - 11.01.04 (KW2)
Datum Zeit Temperatur Luftfeuchte Luftdruck Regenmenge Wind Richtung Taupunkt Windchill
05.01.2004 00:00 -3.0 C 69 % 1023.3 hPa 0.0 l/m 7.3 km/h (2 Bft) SO -7.9 C -5.7 C
05.01.2004 01:00 -2.7 C 68 % 1023.3 hPa 0.0 l/m 5.2 km/h (1 Bft) SO -7.7 C -4.3 C
05.01.2004 02:00 -2.6 C 70 % 1023.4 hPa 0.0 l/m 7.4 km/h (2 Bft) SO -7.3 C -5.1 C
05.01.2004 03:00 -2.6 C 72 % 1023.7 hPa 0.0 l/m 6.4 km/h (2 Bft) SO -6.9 C -4.9 C
05.01.2004 04:00 -2.6 C 74 % 1023.7 hPa 0.0 l/m 1.1 km/h (1 Bft) SO -6.6 C -2.7 C
05.01.2004 05:00 -2.6 C 75 % 1023.3 hPa 0.0 l/m 1.4 km/h (1 Bft) SO -6.4 C -3.0 C
05.01.2004 06:00 -2.5 C 76 % 1024.3 hPa 0.0 l/m 1.0 km/h (0 Bft) SO -6.1 C -2.6 C
05.01.2004 07:00 -2.3 C 75 % 1024.3 hPa 0.0 l/m 2.4 km/h (1 Bft) S-SO -6.1 C -2.9 C
05.01.2004 08:00 -2.4 C 76 % 1024.3 hPa 0.0 l/m 2.5 km/h (1 Bft) SO -6.1 C -3.2 C
05.01.2004 09:00 -2.2 C 76 % 1024.3 hPa 0.0 l/m 1.7 km/h (1 Bft) SO -5.9 C -2.7 C
05.01.2004 10:00 -1.8 C 74 % 1025.3 hPa 0.0 l/m 1.2 km/h (1 Bft) SO -5.9 C -2.2 C
05.01.2004 11:00 -1.4 C 72 % 1025.3 hPa 0.0 l/m 2.3 km/h (1 Bft) SO -5.8 C -2.0 C
05.01.2004 12:00 -0.8 C 71 % 1025.3 hPa 0.0 l/m 2.6 km/h (1 Bft) SO -5.4 C -1.3 C
05.01.2004 13:00 -0.3 C 70 % 1025.1 hPa 0.0 l/m 8.1 km/h (2 Bft) SO -5.1 C -2.8 C
05.01.2004 14:00 -0.2 C 71 % 1024.9 hPa 0.0 l/m 4.7 km/h (1 Bft) O-SO -4.9 C -1.6 C
05.01.2004 15:00 -0.0 C 70 % 1024.9 hPa 0.0 l/m 1.8 km/h (1 Bft) SO -4.9 C -0.5 C
05.01.2004 16:00 -0.4 C 72 % 1024.5 hPa 0.0 l/m 2.0 km/h (1 Bft) O-SO -4.7 C -1.0 C
05.01.2004 17:00 -0.7 C 76 % 1024.6 hPa 0.0 l/m 2.6 km/h (1 Bft) SO -4.5 C -1.4 C
05.01.2004 18:00 -0.9 C 77 % 1024.3 hPa 0.0 l/m 4.6 km/h (1 Bft) O-SO -4.3 C -2.2 C
05.01.2004 19:00 -1.0 C 78 % 1025.2 hPa 0.0 l/m 3.3 km/h (1 Bft) O-SO -4.3 C -1.9 C
05.01.2004 20:00 -1.0 C 79 % 1025.3 hPa 0.0 l/m 0.8 km/h (0 Bft) O-SO -4.2 C -1.2 C
05.01.2004 21:00 -1.1 C 81 % 1025.3 hPa 0.0 l/m 0.0 km/h (0 Bft) N -3.9 C -1.1 C
05.01.2004 22:00 -1.3 C 83 % 1025.3 hPa 0.0 l/m 0.0 km/h (0 Bft) N -3.8 C -1.3 C
05.01.2004 23:00 -1.6 C 84 % 1025.3 hPa 0.0 l/m 0.2 km/h (0 Bft) O-SO -4.0 C -1.6 C
06.01.2004 00:00 -2.2 C 84 % 1024.9 hPa 0.0 l/m 0.2 km/h (0 Bft) O-SO -4.6 C -2.2 C
06.01.2004 01:00 -2.2 C 87 % 1024.3 hPa 0.0 l/m 0.5 km/h (0 Bft) O-SO -4.1 C -2.3 C
06.01.2004 02:00 -2.6 C 86 % 1024.3 hPa 0.0 l/m 0.2 km/h (0 Bft) O-SO -4.7 C -2.6 C
06.01.2004 03:00 -2.7 C 87 % 1024.3 hPa 0.0 l/m 0.0 km/h (0 Bft) N -4.6 C -2.7 C
06.01.2004 04:00 -2.6 C 90 % 1024.3 hPa 0.0 l/m 0.1 km/h (0 Bft) O-SO -4.1 C -2.6 C
06.01.2004 05:00 -2.4 C 90 % 1024.3 hPa 0.0 l/m 0.7 km/h (0 Bft) O-SO -3.9 C -2.6 C
06.01.2004 06:00 -2.4 C 90 % 1024.3 hPa 0.0 l/m 0.2 km/h (0 Bft) O-SO -3.8 C -2.4 C
06.01.2004 07:00 -2.6 C 85 % 1024.3 hPa 0.0 l/m 3.1 km/h (1 Bft) O-SO -4.8 C -3.6 C
06.01.2004 08:00 -2.9 C 87 % 1024.3 hPa 0.0 l/m 1.9 km/h (1 Bft) O-SO -4.7 C -3.5 C
06.01.2004 09:00 -1.8 C 88 % 1024.3 hPa 0.0 l/m 1.1 km/h (0 Bft) O-SO -3.5 C -1.9 C
06.01.2004 10:00 -0.9 C 82 % 1024.3 hPa 0.0 l/m 0.8 km/h (0 Bft) O-SO -3.6 C -1.2 C
06.01.2004 11:00 -0.1 C 78 % 1023.9 hPa 0.0 l/m 6.4 km/h (2 Bft) O-SO -3.5 C -2.3 C
06.01.2004 12:00 0.9 C 74 % 1023.3 hPa 0.0 l/m 5.1 km/h (1 Bft) O-SO -3.1 C -0.5 C
06.01.2004 13:00 1.4 C 73 % 1022.3 hPa 0.0 l/m 4.1 km/h (1 Bft) O-SO -3.0 C 0.4 C
06.01.2004 14:00 1.1 C 74 % 1022.6 hPa 0.0 l/m 6.1 km/h (2 Bft) SO -3.1 C -0.8 C
06.01.2004 15:00 0.9 C 75 % 1023.3 hPa 0.0 l/m 2.7 km/h (1 Bft) SO -3.0 C 0.3 C
06.01.2004 16:00 0.7 C 76 % 1023.3 hPa 0.0 l/m 0.6 km/h (0 Bft) SO -3.0 C 0.6 C
06.01.2004 17:00 0.4 C 80 % 1023.3 hPa 0.0 l/m 1.8 km/h (1 Bft) O-SO -2.6 C -0.1 C
06.01.2004 18:00 0.3 C 82 % 1023.3 hPa 0.0 l/m 4.2 km/h (1 Bft) O-SO -2.4 C -1.0 C
06.01.2004 19:00 -0.5 C 80 % 1023.3 hPa 0.0 l/m 0.8 km/h (0 Bft) SO -3.5 C -0.7 C
06.01.2004 20:00 -0.3 C 85 % 1022.6 hPa 0.0 l/m 4.2 km/h (1 Bft) SO -2.5 C -1.7 C
06.01.2004 21:00 -0.5 C 85 % 1022.5 hPa 0.0 l/m 1.1 km/h (1 Bft) SO -2.6 C -0.8 C
06.01.2004 22:00 -0.5 C 86 % 1022.8 hPa 0.0 l/m 3.5 km/h (1 Bft) SO -2.6 C -1.5 C
06.01.2004 23:00 -0.5 C 84 % 1022.4 hPa 0.0 l/m 4.0 km/h (1 Bft) SO -2.8 C -1.7 C
07.01.2004 00:00 -0.6 C 84 % 1022.2 hPa 0.0 l/m 2.6 km/h (1 Bft) SO -3.0 C -1.1 C
07.01.2004 01:00 0.0 C 83 % 1022.2 hPa 0.0 l/m 4.3 km/h (1 Bft) SO -2.5 C -1.2 C
07.01.2004 02:00 0.1 C 84 % 1022.7 hPa 0.0 l/m 2.7 km/h (1 Bft) SO -2.3 C -0.6 C
07.01.2004 03:00 0.5 C 83 % 1023.3 hPa 0.0 l/m 2.7 km/h (1 Bft) SO -2.0 C -0.1 C
07.01.2004 04:00 0.5 C 84 % 1022.9 hPa 0.0 l/m 5.2 km/h (1 Bft) SO -1.9 C -0.9 C
07.01.2004 05:00 0.6 C 83 % 1022.3 hPa 0.0 l/m 2.6 km/h (1 Bft) SO -1.9 C 0.1 C
07.01.2004 06:00 0.6 C 84 % 1022.2 hPa 0.0 l/m 5.2 km/h (1 Bft) SO -1.7 C -0.7 C
07.01.2004 07:00 0.5 C 83 % 1022.2 hPa 0.0 l/m 2.8 km/h (1 Bft) S-SW -2.1 C -0.3 C
07.01.2004 08:00 0.3 C 86 % 1022.7 hPa 0.0 l/m 4.0 km/h (1 Bft) SO -1.7 C -0.9 C
07.01.2004 09:00 0.9 C 86 % 1022.7 hPa 0.0 l/m 3.8 km/h (1 Bft) SO -1.3 C -0.2 C
07.01.2004 10:00 1.8 C 80 % 1023.0 hPa 0.0 l/m 4.2 km/h (1 Bft) O-SO -1.3 C 0.8 C
07.01.2004 11:00 2.5 C 75 % 1022.3 hPa 0.0 l/m 1.4 km/h (1 Bft) O-SO -1.5 C 2.3 C
07.01.2004 12:00 4.3 C 65 % 1022.2 hPa 0.0 l/m 3.3 km/h (1 Bft) O-SO -1.8 C 3.5 C
07.01.2004 13:00 4.5 C 64 % 1021.2 hPa 0.0 l/m 1.3 km/h (1 Bft) S -1.8 C 4.2 C
07.01.2004 14:00 5.4 C 61 % 1021.1 hPa 0.0 l/m 1.0 km/h (0 Bft) O-SO -1.6 C 5.3 C
07.01.2004 15:00 5.1 C 60 % 1020.2 hPa 0.0 l/m 3.2 km/h (1 Bft) O-SO -2.0 C 4.4 C
07.01.2004 16:00 3.1 C 70 % 1020.1 hPa 0.0 l/m 2.7 km/h (1 Bft) O-SO -1.9 C 2.6 C
07.01.2004 17:00 1.4 C 79 % 1020.1 hPa 0.0 l/m 3.5 km/h (1 Bft) O-SO -1.8 C 0.4 C
07.01.2004 18:00 -0.2 C 85 % 1020.1 hPa 0.0 l/m 0.2 km/h (0 Bft) O-SO -2.4 C -0.2 C
07.01.2004 19:00 -1.2 C 86 % 1020.1 hPa 0.0 l/m 0.0 km/h (0 Bft) N -3.2 C -1.2 C
07.01.2004 20:00 -1.5 C 88 % 1020.1 hPa 0.0 l/m 0.2 km/h (0 Bft) O-SO -3.2 C -1.5 C
07.01.2004 21:00 -1.8 C 89 % 1019.8 hPa 0.0 l/m 0.4 km/h (0 Bft) O-SO -3.5 C -1.8 C
07.01.2004 22:00 -1.5 C 91 % 1019.1 hPa 0.0 l/m 0.0 km/h (0 Bft) N -2.9 C -1.5 C
07.01.2004 23:00 -1.2 C 95 % 1019.1 hPa 0.0 l/m 0.7 km/h (0 Bft) O-SO -1.9 C -1.4 C
08.01.2004 00:00 -1.0 C 98 % 1019.1 hPa 0.0 l/m 0.5 km/h (0 Bft) SO -1.2 C -1.1 C
08.01.2004 01:00 -0.7 C 97 % 1019.1 hPa 0.0 l/m 4.9 km/h (1 Bft) O-SO -1.1 C -2.2 C
08.01.2004 02:00 -0.6 C 99 % 1018.1 hPa 0.0 l/m 3.2 km/h (1 Bft) O-SO -0.7 C -1.4 C
08.01.2004 03:00 -0.4 C 100 % 1018.8 hPa 0.0 l/m 1.8 km/h (1 Bft) SO -0.4 C -1.0 C
08.01.2004 04:00 -0.3 C 99 % 1019.0 hPa 0.0 l/m 4.6 km/h (1 Bft) SO -0.6 C -1.8 C
08.01.2004 05:00 -0.3 C 99 % 1018.1 hPa 0.0 l/m 4.3 km/h (1 Bft) SO -0.4 C -1.3 C
08.01.2004 06:00 -0.3 C 100 % 1018.1 hPa 0.0 l/m 1.3 km/h (1 Bft) SO -0.3 C -0.5 C
08.01.2004 07:00 -0.5 C 100 % 1017.7 hPa 0.0 l/m 1.9 km/h (1 Bft) SO -0.5 C -0.9 C
08.01.2004 08:00 -0.5 C 100 % 1017.0 hPa 0.0 l/m 0.1 km/h (0 Bft) SO -0.5 C -0.5 C
08.01.2004 09:00 -0.5 C 100 % 1017.0 hPa 0.0 l/m 0.1 km/h (0 Bft) N -0.5 C -0.5 C
08.01.2004 10:00 -0.3 C 100 % 1017.0 hPa 0.0 l/m 0.4 km/h (0 Bft) SO -0.3 C -0.4 C
08.01.2004 11:00 -0.1 C 100 % 1016.2 hPa 0.0 l/m 1.4 km/h (1 Bft) SO -0.1 C -0.4 C
08.01.2004 12:00 0.5 C 95 % 1015.6 hPa 0.0 l/m 0.3 km/h (0 Bft) O-SO -0.2 C 0.4 C
08.01.2004 13:00 1.0 C 90 % 1014.7 hPa 0.0 l/m 2.6 km/h (1 Bft) O-SO -0.5 C 0.5 C
08.01.2004 14:00 1.1 C 88 % 1013.9 hPa 0.0 l/m 0.1 km/h (0 Bft) O-SO -0.7 C 1.1 C
08.01.2004 15:00 1.0 C 86 % 1013.0 hPa 0.0 l/m 1.4 km/h (1 Bft) O-SO -1.0 C 0.6 C
08.01.2004 16:00 0.8 C 87 % 1012.8 hPa 0.0 l/m 0.0 km/h (0 Bft) N -1.0 C 0.8 C
08.01.2004 17:00 0.6 C 90 % 1011.9 hPa 0.0 l/m 1.0 km/h (0 Bft) O-SO -0.9 C 0.5 C
08.01.2004 18:00 0.6 C 90 % 1011.0 hPa 0.0 l/m 0.6 km/h (0 Bft) O-SO -0.9 C 0.5 C
08.01.2004 19:00 0.5 C 90 % 1009.8 hPa 0.3 l/m 0.0 km/h (0 Bft) N -0.9 C 0.5 C
08.01.2004 20:00 0.5 C 91 % 1009.8 hPa 2.4 l/m 0.4 km/h (0 Bft) O-SO -0.8 C 0.5 C
08.01.2004 21:00 0.5 C 94 % 1009.6 hPa 3.5 l/m 1.7 km/h (1 Bft) O-SO -0.3 C 0.3 C
08.01.2004 22:00 1.1 C 93 % 1008.7 hPa 1.4 l/m 4.3 km/h (1 Bft) O-SO 0.1 C -0.1 C
08.01.2004 23:00 1.9 C 92 % 1009.5 hPa 2.1 l/m 8.2 km/h (2 Bft) SW 0.8 C 0.0 C
09.01.2004 00:00 2.5 C 93 % 1009.3 hPa 1.4 l/m 17.3 km/h (3 Bft) S 1.4 C -1.6 C
09.01.2004 01:00 2.8 C 93 % 1008.7 hPa 0.0 l/m 7.9 km/h (2 Bft) S 1.8 C 1.0 C
09.01.2004 02:00 2.0 C 94 % 1008.4 hPa 0.0 l/m 0.6 km/h (0 Bft) S-SW 1.1 C 1.9 C
09.01.2004 03:00 1.8 C 98 % 1007.9 hPa 0.0 l/m 1.9 km/h (1 Bft) SO 1.6 C 1.3 C
09.01.2004 04:00 1.9 C 100 % 1007.6 hPa 0.7 l/m 0.5 km/h (0 Bft) SO 1.9 C 1.8 C
09.01.2004 05:00 2.0 C 100 % 1007.6 hPa 0.3 l/m 0.8 km/h (0 Bft) SO 2.0 C 1.9 C
09.01.2004 06:00 2.1 C 100 % 1007.6 hPa 0.7 l/m 1.6 km/h (1 Bft) SO 2.1 C 1.7 C
09.01.2004 07:00 3.2 C 98 % 1008.3 hPa 1.4 l/m 3.5 km/h (1 Bft) W-NW 2.8 C 2.5 C
09.01.2004 08:00 4.2 C 95 % 1008.7 hPa 0.0 l/m 4.2 km/h (1 Bft) SO 3.5 C 3.3 C
09.01.2004 09:00 4.9 C 95 % 1009.5 hPa 0.7 l/m 8.9 km/h (2 Bft) NW 4.1 C 3.3 C
09.01.2004 10:00 5.5 C 95 % 1010.1 hPa 0.0 l/m 8.1 km/h (2 Bft) SW 4.7 C 4.1 C
09.01.2004 11:00 5.7 C 92 % 1010.8 hPa 0.0 l/m 7.5 km/h (2 Bft) W 4.5 C 4.1 C
09.01.2004 12:00 6.2 C 89 % 1010.0 hPa 0.3 l/m 5.7 km/h (1 Bft) W 4.5 C 5.2 C
09.01.2004 13:00 7.3 C 79 % 1009.7 hPa 0.0 l/m 15.2 km/h (3 Bft) W-NW 3.8 C 5.0 C
09.01.2004 14:00 6.5 C 78 % 1009.7 hPa 1.8 l/m 20.0 km/h (4 Bft) NW 2.9 C 3.3 C
09.01.2004 15:00 4.5 C 87 % 1010.4 hPa 2.1 l/m 29.8 km/h (5 Bft) NW 2.5 C -0.6 C
09.01.2004 16:00 4.6 C 90 % 1010.8 hPa 0.3 l/m 25.9 km/h (4 Bft) W-NW 3.0 C -0.0 C
09.01.2004 17:00 4.3 C 89 % 1010.8 hPa 0.3 l/m 11.6 km/h (2 Bft) NW 2.6 C 1.9 C
09.01.2004 18:00 4.6 C 90 % 1011.3 hPa 0.3 l/m 14.7 km/h (3 Bft) W-NW 3.1 C 1.5 C
09.01.2004 19:00 5.1 C 87 % 1011.9 hPa 3.8 l/m 21.9 km/h (4 Bft) NW 3.1 C 1.1 C
09.01.2004 20:00 5.3 C 88 % 1012.8 hPa 0.0 l/m 23.2 km/h (4 Bft) W-NW 3.5 C 1.4 C
09.01.2004 21:00 5.7 C 83 % 1012.5 hPa 0.0 l/m 15.6 km/h (3 Bft) W-NW 3.0 C 2.7 C
09.01.2004 22:00 5.9 C 77 % 1011.8 hPa 0.3 l/m 21.4 km/h (4 Bft) W 2.1 C 2.0 C
09.01.2004 23:00 5.5 C 80 % 1011.8 hPa 0.0 l/m 14.8 km/h (3 Bft) W 2.4 C 2.7 C
10.01.2004 00:00 5.6 C 79 % 1011.1 hPa 0.3 l/m 18.2 km/h (3 Bft) S-SW 2.2 C 2.1 C
10.01.2004 01:00 5.9 C 78 % 1011.0 hPa 2.8 l/m 39.8 km/h (6 Bft) W-NW 2.4 C 0.6 C
10.01.2004 02:00 4.5 C 87 % 1012.4 hPa 3.1 l/m 44.1 km/h (6 Bft) W-NW 2.4 C -1.6 C
10.01.2004 03:00 4.0 C 87 % 1013.3 hPa 0.0 l/m 35.2 km/h (5 Bft) W-NW 2.0 C -1.6 C
10.01.2004 04:00 3.7 C 87 % 1014.5 hPa 0.0 l/m 31.1 km/h (5 Bft) W-NW 1.7 C -1.7 C
10.01.2004 05:00 3.6 C 87 % 1014.8 hPa 0.0 l/m 23.9 km/h (4 Bft) W-NW 1.6 C -1.2 C
10.01.2004 06:00 3.3 C 87 % 1015.3 hPa 0.0 l/m 16.4 km/h (3 Bft) W-NW 1.3 C -0.2 C
10.01.2004 07:00 2.0 C 88 % 1016.6 hPa 0.0 l/m 5.7 km/h (1 Bft) SW 0.2 C 0.4 C
10.01.2004 08:00 1.5 C 91 % 1017.1 hPa 0.0 l/m 4.2 km/h (1 Bft) O-SO 0.2 C 0.4 C
10.01.2004 09:00 2.5 C 93 % 1018.6 hPa 0.0 l/m 5.3 km/h (1 Bft) O-SO 1.4 C 1.1 C
10.01.2004 10:00 3.4 C 91 % 1019.1 hPa 0.0 l/m 3.2 km/h (1 Bft) SO 2.1 C 2.7 C
10.01.2004 11:00 5.0 C 83 % 1019.1 hPa 0.0 l/m 5.3 km/h (1 Bft) W-NW 2.3 C 4.0 C
10.01.2004 12:00 5.9 C 76 % 1019.1 hPa 0.0 l/m 9.4 km/h (2 Bft) W-NW 1.9 C 4.1 C
10.01.2004 13:00 6.4 C 74 % 1019.1 hPa 0.0 l/m 1.0 km/h (0 Bft) W-NW 2.1 C 6.3 C
10.01.2004 14:00 6.9 C 71 % 1019.7 hPa 0.0 l/m 1.4 km/h (1 Bft) W-NW 2.1 C 6.7 C
10.01.2004 15:00 7.0 C 73 % 1019.2 hPa 0.0 l/m 0.4 km/h (0 Bft) SW 2.5 C 7.0 C
10.01.2004 16:00 6.2 C 77 % 1019.9 hPa 0.0 l/m 0.0 km/h (0 Bft) N 2.5 C 6.2 C
10.01.2004 17:00 5.4 C 85 % 1020.1 hPa 0.0 l/m 1.6 km/h (1 Bft) SW 3.0 C 5.2 C
10.01.2004 18:00 4.8 C 89 % 1020.4 hPa 0.0 l/m 1.9 km/h (1 Bft) SW 3.1 C 4.5 C
10.01.2004 19:00 4.5 C 88 % 1021.2 hPa 0.0 l/m 0.0 km/h (0 Bft) N 2.7 C 4.5 C
10.01.2004 20:00 4.7 C 92 % 1021.2 hPa 0.0 l/m 7.0 km/h (2 Bft) S 3.5 C 3.1 C
10.01.2004 21:00 4.8 C 88 % 1021.2 hPa 0.0 l/m 2.8 km/h (1 Bft) SO 3.0 C 4.2 C
10.01.2004 22:00 4.4 C 92 % 1021.2 hPa 0.0 l/m 1.2 km/h (1 Bft) SO 3.3 C 4.2 C
10.01.2004 23:00 5.0 C 89 % 1021.2 hPa 0.0 l/m 1.2 km/h (1 Bft) SO 3.4 C 4.9 C
11.01.2004 00:00 5.2 C 89 % 1021.2 hPa 0.0 l/m 1.3 km/h (1 Bft) SO 3.5 C 4.9 C
11.01.2004 01:00 5.0 C 90 % 1020.5 hPa 0.0 l/m 1.5 km/h (1 Bft) SO 3.5 C 4.7 C
11.01.2004 02:00 4.3 C 96 % 1020.1 hPa 0.0 l/m 0.0 km/h (0 Bft) N 3.7 C 4.3 C
11.01.2004 03:00 4.3 C 99 % 1019.7 hPa 0.0 l/m 0.0 km/h (0 Bft) N 4.1 C 4.3 C
11.01.2004 04:00 4.2 C 100 % 1019.1 hPa 0.0 l/m 0.1 km/h (0 Bft) N 4.2 C 4.2 C
11.01.2004 05:00 4.4 C 100 % 1018.2 hPa 0.0 l/m 0.9 km/h (0 Bft) SO 4.4 C 4.2 C
11.01.2004 06:00 5.0 C 98 % 1018.1 hPa 0.0 l/m 6.6 km/h (2 Bft) SO 4.7 C 3.7 C
11.01.2004 07:00 5.2 C 88 % 1018.1 hPa 0.0 l/m 4.4 km/h (1 Bft) SO 3.3 C 4.4 C
11.01.2004 08:00 5.4 C 85 % 1017.1 hPa 0.0 l/m 0.6 km/h (0 Bft) SW 3.1 C 5.4 C
11.01.2004 09:00 5.5 C 86 % 1017.0 hPa 0.0 l/m 0.3 km/h (0 Bft) SW 3.3 C 5.5 C
11.01.2004 10:00 5.6 C 93 % 1017.0 hPa 0.0 l/m 2.1 km/h (1 Bft) O-SO 4.6 C 5.3 C
11.01.2004 11:00 6.1 C 91 % 1015.7 hPa 0.0 l/m 0.3 km/h (0 Bft) O-NO 4.8 C 6.1 C
11.01.2004 12:00 7.9 C 80 % 1014.4 hPa 0.0 l/m 16.6 km/h (3 Bft) SO 4.7 C 5.4 C
11.01.2004 13:00 8.2 C 81 % 1013.1 hPa 1.4 l/m 19.7 km/h (3 Bft) S-SO 5.1 C 5.2 C
11.01.2004 14:00 8.4 C 86 % 1012.1 hPa 1.0 l/m 17.2 km/h (3 Bft) S-SO 6.2 C 5.9 C
11.01.2004 15:00 8.7 C 87 % 1010.8 hPa 1.4 l/m 21.3 km/h (4 Bft) S 6.7 C 5.8 C
11.01.2004 16:00 8.9 C 88 % 1010.8 hPa 5.9 l/m 19.8 km/h (4 Bft) S-SW 6.9 C 6.1 C
11.01.2004 17:00 9.1 C 89 % 1011.8 hPa 1.4 l/m 9.6 km/h (2 Bft) S 7.4 C 7.7 C
11.01.2004 18:00 9.3 C 90 % 1012.3 hPa 1.4 l/m 12.7 km/h (3 Bft) S-SW 7.7 C 7.6 C
11.01.2004 19:00 9.0 C 90 % 1012.8 hPa 0.0 l/m 9.7 km/h (2 Bft) S 7.4 C 7.6 C
11.01.2004 20:00 9.1 C 90 % 1012.4 hPa 0.0 l/m 20.5 km/h (4 Bft) W-NW 7.4 C 6.7 C
11.01.2004 21:00 9.1 C 85 % 1011.8 hPa 0.0 l/m 13.3 km/h (3 Bft) SW 6.7 C 7.3 C
11.01.2004 22:00 9.0 C 88 % 1011.4 hPa 0.0 l/m 10.5 km/h (2 Bft) SO 7.1 C 7.4 C
11.01.2004 23:00 9.3 C 85 % 1010.8 hPa 0.0 l/m 15.0 km/h (3 Bft) SW 6.8 C 7.2 C
Min-Datum _ 06.01.04 07.01.04 09.01.04 - 05.01.04 - 05.01.04 05.01.04
_ Min-Zeit 08:24 14:51 02:30 - 03:51 - 00:00 00:33
Minimum _ -3.1 C 57 % 1007.6 hPa - 0.0 km/h (0 Bft) - -8.1 C -7.9 C
Max-Datum _ 11.01.04 08.01.04 05.01.04 11.01.04 10.01.04 - 11.01.04 11.01.04
_ Max-Zeit 20:51 02:03 10:03 15:00 02:33 - 20:45 18:21
Maximum _ 9.8 C 100 % 1025.3 hPa 5.9 l/m 65.1 km/h
W-NW (8 Bft)
- 8.3 C 9.3 C
Durchschnitt _ 2.1 C 85 % 1018.2 hPa #43.4 l/m 5.8 km/h (2 Bft) SO -0.2 C 1.0 C

Durchschnitt Minimum Temp.1.7 C
Durchschnitt Maximum Temp.2.4 C
© Kaiko 2004